KSLN Airport (Salina Rgnl) Information

FAA: SLN - ICAO: KSLN

KSLN Airport Location

State Kansas
County Saline
City Salina
KSLN Airport is 3 miles southwest of Salina, KS.
Latitude 38-47-26.2000N
Longitude 097-39-08.0000W
Elevation 1,288ft

KSLN Airport METARs

METAR KSLN 282153Z 18016G29KT 10SM CLR 30/19 A2956 RMK AO2 PK WND 20029/2147 SLP994 T03000189
Altimeter 29.56"
Temperature 30.0°C (86.0°F)
Wind 180° at 16KT with gusts to 29KT
Clouds Skies are clear.
Visibility 10.0mi
Time observed: 2022-05-28T21:53:00Z

KSLN Airport Details

Status Operational
Activation N/A
Ownership Public
Usage Public
Chart WICHITA
ATC on-site Yes
Beacon schedule sunset-sunrise
Beacon color clear green

KSLN Airport Contacts

Owner SALINA ARPT AUTH
Owner address 3237 ARNOLD AVENUE, SALINA, KS 67401
Owner phone 785-827-3914
Manager ROGER R. MCCOLLOUGH
Manager address 2850 I RD, RANDALL, KS 66963
Manager phone 785-739-2429

KSLN Airport (Salina Rgnl) Radio Frequencies

KSLN (Airport) Radio Frequencies

UNICOM 122.95
Common traffic advisory frequency (CTAF) 119.3